createdAt,value
2017-11-13T00:00:26.147Z,483
2017-11-13T00:01:33.603Z,484
2017-11-13T00:02:41.057Z,484
2017-11-13T00:03:48.467Z,484
2017-11-13T00:04:55.580Z,484
2017-11-13T00:06:03.185Z,484
2017-11-13T00:07:10.644Z,485
2017-11-13T00:08:18.570Z,485
2017-11-13T00:09:25.983Z,485
2017-11-13T00:10:32.751Z,485
2017-11-13T00:11:39.864Z,485
2017-11-13T00:12:47.325Z,486
2017-11-13T00:13:54.435Z,487
2017-11-13T00:15:01.851Z,487
2017-11-13T00:16:08.963Z,493
2017-11-13T00:17:16.415Z,493
2017-11-13T00:18:23.869Z,493
2017-11-13T00:19:30.981Z,492
2017-11-13T00:20:38.433Z,492
2017-11-13T00:21:45.886Z,493
2017-11-13T00:22:53.338Z,493
2017-11-13T00:24:00.477Z,493
2017-11-13T00:25:07.840Z,493
2017-11-13T00:26:14.953Z,493
2017-11-13T00:27:22.093Z,493
2017-11-13T00:28:29.548Z,494
2017-11-13T00:29:37.004Z,494
2017-11-13T00:30:44.458Z,494
2017-11-13T00:31:52.209Z,495
2017-11-13T00:32:59.323Z,495
2017-11-13T00:34:06.095Z,494
2017-11-13T00:35:13.207Z,494
2017-11-13T00:36:20.661Z,495
2017-11-13T00:37:27.769Z,496
2017-11-13T00:38:35.225Z,495
2017-11-13T00:39:42.680Z,495
2017-11-13T00:40:49.795Z,495
2017-11-13T00:41:57.245Z,495
2017-11-13T00:43:05.004Z,496
2017-11-13T00:44:12.456Z,496
2017-11-13T00:45:19.907Z,496
2017-11-13T00:46:27.380Z,496
2017-11-13T00:47:34.853Z,497
2017-11-13T00:48:42.601Z,496
2017-11-13T00:49:50.052Z,496
2017-11-13T00:50:57.498Z,497
2017-11-13T00:52:04.953Z,496
2017-11-13T00:53:12.404Z,497
2017-11-13T00:54:19.860Z,496
2017-11-13T00:55:27.312Z,497
2017-11-13T00:56:34.428Z,496
2017-11-13T00:57:41.885Z,497
2017-11-13T00:58:49.342Z,497
2017-11-13T00:59:57.097Z,497
2017-11-13T01:01:04.555Z,496
2017-11-13T01:02:11.662Z,496
2017-11-13T01:03:19.119Z,496
2017-11-13T01:04:26.573Z,497
2017-11-13T01:05:33.359Z,497
2017-11-13T01:06:40.816Z,496
2017-11-13T01:07:47.580Z,497
2017-11-13T01:08:55.037Z,497
2017-11-13T01:10:02.521Z,497
2017-11-13T01:11:10.267Z,495
2017-11-13T01:12:17.713Z,494
2017-11-13T01:13:24.826Z,494
2017-11-13T01:14:31.936Z,494
2017-11-13T01:15:38.717Z,494
2017-11-13T01:16:46.168Z,494
2017-11-13T01:17:53.272Z,493
2017-11-13T01:19:00.723Z,494
2017-11-13T01:20:07.835Z,492
2017-11-13T01:21:15.591Z,492
2017-11-13T01:22:22.703Z,490
2017-11-13T01:23:30.157Z,489
2017-11-13T01:24:37.639Z,488
2017-11-13T01:25:44.744Z,487
2017-11-13T01:26:52.502Z,486
2017-11-13T01:27:59.617Z,485
2017-11-13T01:29:07.071Z,485
2017-11-13T01:30:14.526Z,484
2017-11-13T01:31:21.980Z,482
2017-11-13T01:32:29.787Z,482
2017-11-13T01:33:37.278Z,481
2017-11-13T01:34:44.391Z,481
2017-11-13T01:35:51.840Z,480
2017-11-13T01:36:58.955Z,480
2017-11-13T01:38:06.710Z,479
2017-11-13T01:39:14.157Z,479
2017-11-13T01:40:20.929Z,478
2017-11-13T01:41:28.391Z,478
2017-11-13T01:42:35.841Z,478
2017-11-13T01:43:43.751Z,477
2017-11-13T01:44:51.201Z,477
2017-11-13T01:45:58.655Z,476
2017-11-13T01:47:05.767Z,476
2017-11-13T01:48:13.216Z,474
2017-11-13T01:49:20.328Z,474
2017-11-13T01:50:27.778Z,474
2017-11-13T01:51:35.233Z,473
2017-11-13T01:52:42.690Z,471
2017-11-13T01:53:50.142Z,471
2017-11-13T01:54:57.899Z,477
2017-11-13T01:56:05.359Z,477
2017-11-13T01:57:12.826Z,476
2017-11-13T01:58:19.938Z,474
2017-11-13T01:59:27.391Z,475
2017-11-13T02:00:34.498Z,475
2017-11-13T02:01:41.948Z,477
2017-11-13T02:02:49.413Z,476
2017-11-13T02:03:56.521Z,476
2017-11-13T02:05:03.991Z,478
2017-11-13T02:06:11.745Z,478
2017-11-13T02:07:18.853Z,479
2017-11-13T02:08:26.311Z,480
2017-11-13T02:09:33.765Z,480
2017-11-13T02:10:41.218Z,481
2017-11-13T02:11:48.972Z,481
2017-11-13T02:12:56.425Z,481
2017-11-13T02:14:03.541Z,481
2017-11-13T02:15:10.998Z,480
2017-11-13T02:16:17.776Z,480
2017-11-13T02:17:25.230Z,479
2017-11-13T02:18:32.682Z,479
2017-11-13T02:19:40.135Z,480
2017-11-13T02:20:47.244Z,479
2017-11-13T02:21:56.260Z,480
2017-11-13T02:23:04.015Z,481
2017-11-13T02:24:11.470Z,480
2017-11-13T02:25:18.243Z,481
2017-11-13T02:26:25.703Z,481
2017-11-13T02:27:33.157Z,481
2017-11-13T02:28:40.614Z,482
2017-11-13T02:29:47.733Z,483
2017-11-13T02:30:55.188Z,483
2017-11-13T02:32:02.640Z,484
2017-11-13T02:33:10.390Z,484
2017-11-13T02:34:17.520Z,485
2017-11-13T02:35:24.975Z,485
2017-11-13T02:36:32.428Z,486
2017-11-13T02:37:39.541Z,486
2017-11-13T02:38:47.337Z,487
2017-11-13T02:39:54.452Z,488
2017-11-13T02:41:01.575Z,489
2017-11-13T02:42:08.344Z,490
2017-11-13T02:43:15.796Z,490
2017-11-13T02:44:23.274Z,490
2017-11-13T02:45:30.379Z,492
2017-11-13T02:46:37.539Z,491
2017-11-13T02:47:44.652Z,492
2017-11-13T02:48:52.106Z,492
2017-11-13T02:49:59.535Z,494
2017-11-13T02:51:06.993Z,492
2017-11-13T02:52:13.774Z,493
2017-11-13T02:53:21.222Z,494
2017-11-13T02:54:28.332Z,494
2017-11-13T02:55:35.784Z,494
2017-11-13T02:56:42.892Z,494
2017-11-13T02:57:50.003Z,495
2017-11-13T02:58:57.118Z,494
2017-11-13T03:00:04.590Z,496
2017-11-13T03:01:12.043Z,496
2017-11-13T03:02:19.166Z,496
2017-11-13T03:03:26.291Z,496
2017-11-13T03:04:33.743Z,497
2017-11-13T03:05:41.207Z,497
2017-11-13T03:06:48.270Z,497
2017-11-13T03:07:55.036Z,497
2017-11-13T03:09:02.494Z,498
2017-11-13T03:10:09.600Z,498
2017-11-13T03:11:16.718Z,498
2017-11-13T03:12:24.129Z,499
2017-11-13T03:13:30.902Z,498
2017-11-13T03:14:38.356Z,498
2017-11-13T03:15:45.817Z,499
2017-11-13T03:16:52.924Z,499
2017-11-13T03:18:00.675Z,499
2017-11-13T03:19:08.131Z,500
2017-11-13T03:20:15.236Z,500
2017-11-13T03:21:22.364Z,501
2017-11-13T03:22:29.474Z,501
2017-11-13T03:23:37.241Z,501
2017-11-13T03:24:44.711Z,501
2017-11-13T03:25:52.157Z,502
2017-11-13T03:26:59.614Z,503
2017-11-13T03:28:06.718Z,502
2017-11-13T03:29:14.482Z,502
2017-11-13T03:30:22.159Z,502
2017-11-13T03:31:29.646Z,503
2017-11-13T03:32:37.100Z,503
2017-11-13T03:33:44.553Z,502
2017-11-13T03:34:52.033Z,503
2017-11-13T03:35:59.491Z,503
2017-11-13T03:37:06.265Z,503
2017-11-13T03:38:13.721Z,504
2017-11-13T03:39:21.168Z,503
2017-11-13T03:40:28.280Z,503
2017-11-13T03:41:35.393Z,504
2017-11-13T03:42:42.848Z,504
2017-11-13T03:43:50.303Z,504
2017-11-13T03:44:57.417Z,503
2017-11-13T03:46:05.176Z,504
2017-11-13T03:47:12.626Z,504
2017-11-13T03:48:19.747Z,504
2017-11-13T03:49:26.854Z,505
2017-11-13T03:50:34.310Z,505
2017-11-13T03:51:41.759Z,505
2017-11-13T03:52:49.218Z,505
2017-11-13T03:53:56.671Z,506
2017-11-13T03:55:04.128Z,505
2017-11-13T03:56:11.236Z,506
2017-11-13T03:57:18.375Z,505
2017-11-13T03:58:25.488Z,505
2017-11-13T03:59:32.946Z,505
2017-11-13T04:00:40.080Z,505
2017-11-13T04:01:47.232Z,505
2017-11-13T04:02:54.983Z,505
2017-11-13T04:04:02.443Z,506
2017-11-13T04:05:09.551Z,507
2017-11-13T04:06:17.009Z,506
2017-11-13T04:07:24.463Z,507
2017-11-13T04:08:31.877Z,508
2017-11-13T04:09:39.007Z,507
2017-11-13T04:10:46.456Z,506
2017-11-13T04:11:53.912Z,505
2017-11-13T04:13:01.036Z,505
2017-11-13T04:14:08.490Z,506
2017-11-13T04:15:15.945Z,506
2017-11-13T04:16:23.407Z,506
2017-11-13T04:17:30.858Z,506
2017-11-13T04:18:53.231Z,507
2017-11-13T04:20:00.342Z,507
2017-11-13T04:21:07.113Z,508
2017-11-13T04:22:14.565Z,507
2017-11-13T04:23:22.022Z,508
2017-11-13T04:24:29.471Z,507
2017-11-13T04:25:36.582Z,507
2017-11-13T04:26:44.040Z,508
2017-11-13T04:27:51.486Z,507
2017-11-13T04:28:59.243Z,508
2017-11-13T04:30:06.697Z,508
2017-11-13T04:31:13.805Z,508
2017-11-13T04:32:21.260Z,509
2017-11-13T04:33:28.714Z,508
2017-11-13T04:34:36.121Z,509
2017-11-13T04:35:43.577Z,508
2017-11-13T04:36:50.692Z,508
2017-11-13T04:37:58.142Z,509
2017-11-13T04:39:05.254Z,509
2017-11-13T04:40:12.705Z,509
2017-11-13T04:41:19.816Z,509
2017-11-13T04:42:27.268Z,509
2017-11-13T04:43:34.727Z,510
2017-11-13T04:44:42.183Z,510
2017-11-13T04:45:49.300Z,509
2017-11-13T04:46:56.748Z,509
2017-11-13T04:48:04.209Z,510
2017-11-13T04:49:11.661Z,511
2017-11-13T04:50:18.424Z,512
2017-11-13T04:51:25.882Z,511
2017-11-13T04:52:32.676Z,511
2017-11-13T04:53:39.795Z,511
2017-11-13T04:54:46.843Z,512
2017-11-13T04:55:54.302Z,511
2017-11-13T04:57:01.769Z,511
2017-11-13T04:58:09.223Z,510
2017-11-13T04:59:16.677Z,515
2017-11-13T05:00:23.788Z,510
2017-11-13T05:01:30.562Z,511
2017-11-13T05:02:38.019Z,511
2017-11-13T05:03:45.476Z,510
2017-11-13T05:04:52.587Z,511
2017-11-13T05:06:00.039Z,511
2017-11-13T05:07:07.152Z,512
2017-11-13T05:08:14.605Z,512
2017-11-13T05:09:22.088Z,512
2017-11-13T05:10:29.542Z,512
2017-11-13T05:11:36.996Z,512
2017-11-13T05:12:44.449Z,512
2017-11-13T05:13:52.059Z,513
2017-11-13T05:14:59.512Z,512
2017-11-13T05:16:07.016Z,513
2017-11-13T05:17:14.472Z,513
2017-11-13T05:18:21.583Z,512
2017-11-13T05:19:29.039Z,513
2017-11-13T05:20:36.160Z,512
2017-11-13T05:21:43.279Z,512
2017-11-13T05:22:50.387Z,511
2017-11-13T05:23:57.839Z,507
2017-11-13T05:25:04.950Z,506
2017-11-13T05:26:12.060Z,507
2017-11-13T05:27:19.174Z,505
2017-11-13T05:28:26.291Z,504
2017-11-13T05:29:33.744Z,502
2017-11-13T05:30:41.202Z,500
2017-11-13T05:31:48.307Z,500
2017-11-13T05:32:55.772Z,498
2017-11-13T05:34:03.233Z,497
2017-11-13T05:35:10.384Z,496
2017-11-13T05:36:17.494Z,494
2017-11-13T05:37:24.945Z,493
2017-11-13T05:38:32.057Z,493
2017-11-13T05:39:39.171Z,492
2017-11-13T05:40:46.625Z,491
2017-11-13T05:41:54.086Z,491
2017-11-13T05:43:01.203Z,491
2017-11-13T05:44:08.664Z,490
2017-11-13T05:45:16.114Z,490
2017-11-13T05:46:23.565Z,490
2017-11-13T05:47:31.017Z,489
2017-11-13T05:48:38.134Z,488
2017-11-13T05:49:45.241Z,488
2017-11-13T05:50:52.352Z,488
2017-11-13T05:51:59.806Z,488
2017-11-13T05:53:07.264Z,488
2017-11-13T05:54:14.763Z,488
2017-11-13T05:55:22.227Z,489
2017-11-13T05:56:29.679Z,488
2017-11-13T05:57:36.793Z,489
2017-11-13T05:58:44.249Z,489
2017-11-13T05:59:51.364Z,489
2017-11-13T06:00:58.818Z,489
2017-11-13T06:02:06.273Z,491
2017-11-13T06:03:13.734Z,490
2017-11-13T06:04:21.191Z,490
2017-11-13T06:05:28.306Z,489
2017-11-13T06:06:35.101Z,489
2017-11-13T06:07:42.216Z,491
2017-11-13T06:08:49.335Z,489
2017-11-13T06:09:56.444Z,490
2017-11-13T06:11:03.565Z,490
2017-11-13T06:12:10.682Z,491
2017-11-13T06:13:18.152Z,490
2017-11-13T06:14:25.140Z,490
2017-11-13T06:15:32.249Z,490
2017-11-13T06:16:39.700Z,489
2017-11-13T06:17:47.156Z,490
2017-11-13T06:18:54.277Z,490
2017-11-13T06:20:01.042Z,491
2017-11-13T06:21:08.159Z,491
2017-11-13T06:22:14.928Z,492
2017-11-13T06:23:22.037Z,491
2017-11-13T06:24:29.494Z,492
2017-11-13T06:25:36.971Z,492
2017-11-13T06:26:44.429Z,492
2017-11-13T06:27:51.881Z,492
2017-11-13T06:28:58.991Z,492
2017-11-13T06:30:06.102Z,492
2017-11-13T06:31:13.218Z,492
2017-11-13T06:32:20.346Z,492
2017-11-13T06:33:27.458Z,492
2017-11-13T06:34:34.943Z,492
2017-11-13T06:35:41.715Z,493
2017-11-13T06:36:49.162Z,493
2017-11-13T06:37:55.581Z,493
2017-11-13T06:39:02.898Z,493
2017-11-13T06:40:10.350Z,494
2017-11-13T06:41:17.806Z,494
2017-11-13T06:42:24.920Z,495
2017-11-13T06:43:32.375Z,494
2017-11-13T06:44:39.488Z,495
2017-11-13T06:45:46.941Z,495
2017-11-13T06:46:54.408Z,494
2017-11-13T06:48:01.509Z,494
2017-11-13T06:49:08.631Z,494
2017-11-13T06:50:16.094Z,494
2017-11-13T06:51:23.540Z,495
2017-11-13T06:52:30.993Z,495
2017-11-13T06:53:38.145Z,494
2017-11-13T06:54:45.601Z,495
2017-11-13T06:55:53.081Z,495
2017-11-13T06:57:00.196Z,496
2017-11-13T06:58:07.648Z,496
2017-11-13T06:59:14.761Z,496
2017-11-13T07:00:22.214Z,496
2017-11-13T07:01:29.329Z,495
2017-11-13T07:02:36.801Z,497
2017-11-13T07:03:44.263Z,497
2017-11-13T07:04:51.739Z,497
2017-11-13T07:05:59.190Z,497
2017-11-13T07:07:06.297Z,496
2017-11-13T07:08:13.411Z,495
2017-11-13T07:09:20.867Z,494
2017-11-13T07:10:28.319Z,494
2017-11-13T07:11:35.772Z,494
2017-11-13T07:12:43.384Z,493
2017-11-13T07:13:50.839Z,493
2017-11-13T07:14:57.956Z,493
2017-11-13T07:16:05.069Z,493
2017-11-13T07:17:12.206Z,493
2017-11-13T07:18:19.661Z,493
2017-11-13T07:19:26.792Z,494
2017-11-13T07:20:33.911Z,494
2017-11-13T07:21:41.373Z,494
2017-11-13T07:22:48.833Z,494
2017-11-13T07:23:56.296Z,494
2017-11-13T07:25:03.750Z,495
2017-11-13T07:26:11.207Z,495
2017-11-13T07:27:18.662Z,494
2017-11-13T07:28:25.770Z,495
2017-11-13T07:29:33.221Z,494
2017-11-13T07:30:40.690Z,495
2017-11-13T07:31:48.141Z,495
2017-11-13T07:32:55.267Z,495
2017-11-13T07:34:02.726Z,494
2017-11-13T07:35:10.051Z,484
2017-11-13T07:36:17.165Z,484
2017-11-13T07:37:24.634Z,486
2017-11-13T07:38:31.742Z,490
2017-11-13T07:39:39.202Z,492
2017-11-13T07:40:46.342Z,493
2017-11-13T07:41:53.772Z,492
2017-11-13T07:43:01.225Z,490
2017-11-13T07:44:08.343Z,491
2017-11-13T07:45:15.466Z,491
2017-11-13T07:46:22.941Z,492
2017-11-13T07:47:30.395Z,491
2017-11-13T07:48:37.846Z,491
2017-11-13T07:49:45.299Z,489
2017-11-13T07:50:52.989Z,490
2017-11-13T07:52:00.751Z,489
2017-11-13T07:53:08.441Z,489
2017-11-13T07:54:15.899Z,488
2017-11-13T07:55:23.024Z,484
2017-11-13T07:56:30.483Z,482
2017-11-13T07:57:37.949Z,481
2017-11-13T07:58:45.063Z,484
2017-11-13T07:59:52.536Z,489
2017-11-13T08:00:59.665Z,493
2017-11-13T08:02:06.433Z,495
2017-11-13T08:03:13.214Z,497
2017-11-13T08:04:20.987Z,496
2017-11-13T08:05:28.439Z,496
2017-11-13T08:06:35.554Z,494
2017-11-13T08:07:43.011Z,491
2017-11-13T08:08:50.470Z,487
2017-11-13T08:09:57.203Z,484
2017-11-13T08:11:04.660Z,481
2017-11-13T08:12:12.146Z,480
2017-11-13T08:13:19.260Z,480
2017-11-13T08:14:26.729Z,474
2017-11-13T08:15:34.493Z,478
2017-11-13T08:16:41.622Z,482
2017-11-13T08:17:49.084Z,483
2017-11-13T08:18:56.532Z,482
2017-11-13T08:20:03.988Z,479
2017-11-13T08:21:11.744Z,478
2017-11-13T08:22:18.853Z,475
2017-11-13T08:23:25.962Z,473
2017-11-13T08:24:33.439Z,473
2017-11-13T08:25:40.554Z,473
2017-11-13T08:26:48.332Z,473
2017-11-13T08:27:55.822Z,472
2017-11-13T08:29:02.933Z,473
2017-11-13T08:30:10.054Z,474
2017-11-13T08:31:17.177Z,474
2017-11-13T08:32:24.922Z,476
2017-11-13T08:33:32.037Z,476
2017-11-13T08:34:39.148Z,475
2017-11-13T08:35:46.602Z,474
2017-11-13T08:36:54.054Z,470
2017-11-13T08:38:01.161Z,471
2017-11-13T08:39:08.626Z,471
2017-11-13T08:40:15.756Z,471
2017-11-13T08:41:22.557Z,471
2017-11-13T08:42:29.626Z,470
2017-11-13T08:43:37.116Z,470
2017-11-13T08:44:44.593Z,469
2017-11-13T08:45:52.046Z,470
2017-11-13T08:46:59.162Z,469
2017-11-13T08:48:06.968Z,468
2017-11-13T08:49:14.431Z,468
2017-11-13T08:50:21.775Z,468
2017-11-13T08:51:29.840Z,469
2017-11-13T08:52:37.301Z,469
2017-11-13T08:53:45.069Z,469
2017-11-13T08:54:52.182Z,470
2017-11-13T08:55:59.639Z,470
2017-11-13T08:57:07.095Z,471
2017-11-13T08:58:14.544Z,471
2017-11-13T08:59:21.659Z,473
2017-11-13T09:00:29.139Z,472
2017-11-13T09:01:36.590Z,473
2017-11-13T09:02:43.716Z,473
2017-11-13T09:03:51.167Z,474
2017-11-13T09:04:58.282Z,476
2017-11-13T09:06:05.423Z,476
2017-11-13T09:07:12.542Z,477
2017-11-13T09:08:18.965Z,477
2017-11-13T09:09:26.419Z,478
2017-11-13T09:10:33.193Z,478
2017-11-13T09:11:40.647Z,478
2017-11-13T09:12:47.783Z,478
2017-11-13T09:13:55.235Z,478
2017-11-13T09:15:02.352Z,479
2017-11-13T09:16:09.492Z,478
2017-11-13T09:17:16.949Z,479
2017-11-13T09:18:24.053Z,480
2017-11-13T09:19:31.512Z,479
2017-11-13T09:20:38.965Z,480
2017-11-13T09:21:47.657Z,481
2017-11-13T09:22:55.115Z,481
2017-11-13T09:24:02.589Z,482
2017-11-13T09:25:09.707Z,482
2017-11-13T09:26:16.828Z,483
2017-11-13T09:27:24.287Z,484
2017-11-13T09:28:31.741Z,485
2017-11-13T09:29:39.196Z,485
2017-11-13T09:30:45.975Z,486
2017-11-13T09:31:53.429Z,486
2017-11-13T09:33:00.897Z,488
2017-11-13T09:34:08.352Z,488
2017-11-13T09:35:15.809Z,489
2017-11-13T09:36:23.580Z,489
2017-11-13T09:37:30.690Z,488
2017-11-13T09:38:37.828Z,488
2017-11-13T09:39:44.957Z,488
2017-11-13T09:40:52.411Z,487
2017-11-13T09:41:59.875Z,487
2017-11-13T09:43:07.478Z,487
2017-11-13T09:44:14.934Z,486
2017-11-13T09:45:22.046Z,486
2017-11-13T09:46:29.167Z,486
2017-11-13T09:47:36.629Z,487
2017-11-13T09:48:44.099Z,486
2017-11-13T09:49:50.872Z,488
2017-11-13T09:50:58.329Z,487
2017-11-13T09:52:05.122Z,487
2017-11-13T09:53:12.251Z,487
2017-11-13T09:54:19.712Z,487
2017-11-13T09:55:27.188Z,487
2017-11-13T09:56:34.656Z,487
2017-11-13T09:57:41.771Z,487
2017-11-13T09:58:49.232Z,487
2017-11-13T09:59:56.660Z,488
2017-11-13T10:01:04.115Z,489
2017-11-13T10:02:11.583Z,487
2017-11-13T10:03:18.950Z,488
2017-11-13T10:04:26.407Z,487
2017-11-13T10:05:33.887Z,489
2017-11-13T10:06:41.361Z,489
2017-11-13T10:07:48.480Z,490
2017-11-13T10:08:55.955Z,491
2017-11-13T10:10:03.415Z,491
2017-11-13T10:11:11.169Z,489
2017-11-13T10:12:18.296Z,488
2017-11-13T10:13:25.401Z,487
2017-11-13T10:14:32.520Z,486
2017-11-13T10:15:40.020Z,481
2017-11-13T10:16:47.142Z,476
2017-11-13T10:17:54.619Z,475
2017-11-13T10:19:01.749Z,474
2017-11-13T10:20:09.202Z,471
2017-11-13T10:21:16.658Z,471
2017-11-13T10:22:24.114Z,472
2017-11-13T10:23:30.578Z,470
2017-11-13T10:24:37.701Z,471
2017-11-13T10:25:44.824Z,475
2017-11-13T10:26:51.944Z,477
2017-11-13T10:27:59.012Z,480
2017-11-13T10:29:06.127Z,482
2017-11-13T10:30:13.252Z,481
2017-11-13T10:31:20.706Z,481
2017-11-13T10:32:28.165Z,481
2017-11-13T10:33:35.620Z,481
2017-11-13T10:34:42.725Z,479
2017-11-13T10:35:49.849Z,479
2017-11-13T10:36:57.314Z,479
2017-11-13T10:38:04.425Z,478
2017-11-13T10:39:11.543Z,475
2017-11-13T10:40:18.656Z,479
2017-11-13T10:41:26.385Z,479
2017-11-13T10:42:33.853Z,479
2017-11-13T10:43:40.978Z,481
2017-11-13T10:44:48.439Z,479
2017-11-13T10:45:56.123Z,479
2017-11-13T10:47:03.578Z,480
2017-11-13T10:48:11.035Z,480
2017-11-13T10:49:18.498Z,480
2017-11-13T10:50:26.256Z,479
2017-11-13T10:51:33.371Z,480
2017-11-13T10:52:40.487Z,478
2017-11-13T10:53:47.970Z,479
2017-11-13T10:54:55.285Z,478
2017-11-13T10:56:02.747Z,478
2017-11-13T10:57:09.520Z,479
2017-11-13T10:58:16.976Z,480
2017-11-13T10:59:24.433Z,480
2017-11-13T11:00:31.544Z,481
2017-11-13T11:01:39.001Z,481
2017-11-13T11:02:46.462Z,477
2017-11-13T11:03:53.593Z,480
2017-11-13T11:05:00.713Z,478
2017-11-13T11:06:07.487Z,474
2017-11-13T11:07:14.948Z,474
2017-11-13T11:08:22.714Z,474
2017-11-13T11:09:30.210Z,474
2017-11-13T11:10:37.687Z,475
2017-11-13T11:11:45.145Z,479
2017-11-13T11:12:51.557Z,482
2017-11-13T11:13:59.013Z,481
2017-11-13T11:15:06.129Z,480
2017-11-13T11:16:13.588Z,482
2017-11-13T11:17:20.713Z,484
2017-11-13T11:18:28.192Z,484
2017-11-13T11:19:35.959Z,483
2017-11-13T11:20:43.425Z,476
2017-11-13T11:21:50.891Z,470
2017-11-13T11:22:58.008Z,469
2017-11-13T11:24:05.120Z,469
2017-11-13T11:25:12.880Z,468
2017-11-13T11:26:20.334Z,468
2017-11-13T11:27:27.459Z,467
2017-11-13T11:28:34.917Z,465
2017-11-13T11:29:41.700Z,464
2017-11-13T11:30:49.137Z,463
2017-11-13T11:31:55.912Z,468
2017-11-13T11:33:03.036Z,468
2017-11-13T11:34:10.494Z,468
2017-11-13T11:35:17.603Z,466
2017-11-13T11:36:24.720Z,465
2017-11-13T11:37:32.177Z,461
2017-11-13T11:38:39.298Z,460
2017-11-13T11:39:46.758Z,458
2017-11-13T11:40:54.214Z,456
2017-11-13T11:42:01.698Z,457
2017-11-13T11:43:08.816Z,459
2017-11-13T11:44:15.924Z,459
2017-11-13T11:45:24.019Z,461
2017-11-13T11:46:31.781Z,464
2017-11-13T11:47:39.241Z,462
2017-11-13T11:48:46.354Z,464
2017-11-13T11:49:53.467Z,466
2017-11-13T11:51:00.580Z,469
2017-11-13T11:52:07.998Z,480
2017-11-13T11:53:15.116Z,484
2017-11-13T11:54:22.569Z,484
2017-11-13T11:55:29.686Z,478
2017-11-13T11:56:37.145Z,472
2017-11-13T11:57:44.925Z,469
2017-11-13T11:58:51.698Z,470
2017-11-13T11:59:58.815Z,471
2017-11-13T12:01:06.272Z,471
2017-11-13T12:02:13.734Z,467
2017-11-13T12:03:21.009Z,469
2017-11-13T12:04:28.511Z,471
2017-11-13T12:05:35.967Z,470
2017-11-13T12:06:43.422Z,467
2017-11-13T12:07:50.548Z,467
2017-11-13T12:08:57.972Z,474
2017-11-13T12:10:05.426Z,472
2017-11-13T12:11:12.889Z,466
2017-11-13T12:12:19.875Z,465
2017-11-13T12:13:27.333Z,465
2017-11-13T12:14:35.087Z,467
2017-11-13T12:15:42.545Z,468
2017-11-13T12:16:49.666Z,467
2017-11-13T12:17:56.788Z,467
2017-11-13T12:19:03.228Z,472
2017-11-13T12:20:10.987Z,478
2017-11-13T12:21:18.444Z,481
2017-11-13T12:22:25.903Z,476
2017-11-13T12:23:33.361Z,472
2017-11-13T12:24:40.821Z,469
2017-11-13T12:25:48.281Z,468
2017-11-13T12:26:55.739Z,468
2017-11-13T12:28:03.216Z,466
2017-11-13T12:29:10.676Z,462
2017-11-13T12:30:18.105Z,462
2017-11-13T12:31:25.222Z,464
2017-11-13T12:32:32.550Z,460
2017-11-13T12:33:40.018Z,460
2017-11-13T12:34:47.474Z,457
2017-11-13T12:35:55.237Z,465
2017-11-13T12:37:02.693Z,465
2017-11-13T12:38:10.166Z,469
2017-11-13T12:39:17.633Z,480
2017-11-13T12:40:25.093Z,482
2017-11-13T12:41:32.554Z,484
2017-11-13T12:42:40.021Z,484
2017-11-13T12:43:47.140Z,484
2017-11-13T12:44:54.647Z,485
2017-11-13T12:46:02.114Z,486
2017-11-13T12:47:09.238Z,486
2017-11-13T12:48:16.701Z,485
2017-11-13T12:49:24.173Z,485
2017-11-13T12:50:31.627Z,484
2017-11-13T12:51:39.096Z,484
2017-11-13T12:52:46.558Z,484
2017-11-13T12:53:53.678Z,483
2017-11-13T12:55:01.137Z,482
2017-11-13T12:56:08.604Z,481
2017-11-13T12:57:16.062Z,470
2017-11-13T12:58:23.526Z,468
2017-11-13T12:59:30.306Z,471
2017-11-13T13:00:37.768Z,468
2017-11-13T13:01:45.226Z,461
2017-11-13T13:02:52.683Z,467
2017-11-13T13:03:59.796Z,473
2017-11-13T13:05:06.914Z,468
2017-11-13T13:06:13.704Z,469
2017-11-13T13:07:21.165Z,469
2017-11-13T13:08:27.597Z,474
2017-11-13T13:09:34.391Z,479
2017-11-13T13:10:41.164Z,482
2017-11-13T13:11:48.640Z,484
2017-11-13T13:12:55.804Z,484
2017-11-13T13:14:02.911Z,485
2017-11-13T13:15:09.690Z,485
2017-11-13T13:16:17.149Z,484
2017-11-13T13:17:24.271Z,484
2017-11-13T13:18:31.393Z,483
2017-11-13T13:19:39.209Z,483
2017-11-13T13:20:46.671Z,482
2017-11-13T13:21:54.162Z,482
2017-11-13T13:23:01.285Z,481
2017-11-13T13:24:08.408Z,472
2017-11-13T13:25:15.867Z,465
2017-11-13T13:26:22.987Z,462
2017-11-13T13:27:30.472Z,463
2017-11-13T13:28:37.601Z,465
2017-11-13T13:29:45.064Z,474
2017-11-13T13:30:52.526Z,478
2017-11-13T13:31:59.984Z,478
